Disclaimer

Please do not use the information listed here in-flight or in-navigation, as they are not provided to us by the airports but are provided by volunteers, so they might be outdated.

Search


Regions


Airport information page

Radio informations:
Approach/Tower (APP/TWR) - 118.8 MHz
RDO - 3407 MHz

Airport informations:
Latitude: 22° 27' 39.55" N
Longitude: 078° 19' 42.32" W
Elevation: 13 feet - 4 meters
Operating hours: N/A
Operating agency: Civil government, landing fees and diplomatic clearance may be required
Timezone: UTC-5(-4DT)
Fuel: N/A

Runway information:
08/26 - 9842 x 148 feet< - >3000 x 45 meters

Recent METARs:
MUCC 191550Z 07012KT 9000 FEW020 30/22 Q1018
MUCC 191650Z 07012KT 050V120 9000 FEW020 30/22 Q1017
MUCC 191650Z 07012KT 050V120 9000 FEW020 30/22 Q1017

Airport on the map: